Time;durP1;ratioP1;P1;durP2;ratioP2;P2;SDS_P1;SDS_P2;PMS_P1;PMS_P2;Temp;Humidity;BMP_temperature;BMP_pressure;BME280_temperature;BME280_humidity;BME280_pressure;Samples;Min_cycle;Max_cycle;Signal;HPM_P1;HPM_P2
2023/07/15 00:00:54;;;;;;;;;;;;;;;;;;5111755;28;19908;-70
2023/07/15 00:03:20;;;;;;;;;;;;;;;;;;5111035;28;19958;-70
2023/07/15 00:05:46;;;;;;;;;;;;;;;;;;5111797;28;19912;-72
2023/07/15 00:08:12;;;;;;;;;;;;;;;;;;5111382;28;19938;-71
2023/07/15 00:14:53;;;;;;;;;;;;;;;;;;5173876;27;20018;-71
2023/07/15 00:19:51;;;;;;;;;;;;;;;;;;5153195;27;20375;-70
2023/07/15 00:25:05;;;;;;;;;;;;;;;;;;5112334;27;19922;-70
2023/07/15 00:27:30;;;;;;;;;;;;;;;;;;5111959;28;19912;-70
2023/07/15 00:29:56;;;;;;;;;;;;;;;;;;5110051;28;19991;-71
2023/07/15 00:32:22;;;;;;;;;;;;;;;;;;5111677;28;19912;-70
2023/07/15 00:35:40;;;;;;;;;;;;;;;;;;5112688;27;19923;-71
2023/07/15 00:38:06;;;;;;;;;;;;;;;;;;5111392;28;19991;-71
2023/07/15 00:41:52;;;;;;;;;;;;;;;;;;5112554;27;19912;-70
2023/07/15 00:44:18;;;;;;;;;;;;;;;;;;5110026;28;19994;-70
2023/07/15 00:46:44;;;;;;;;;;;;;;;;;;5111686;28;19953;-72
2023/07/15 00:49:10;;;;;;;;;;;;;;;;;;5110326;28;19918;-72
2023/07/15 00:51:36;;;;;;;;;;;;;;;;;;5111396;28;19908;-72
2023/07/15 00:54:03;;;;;;;;;;;;;;;;;;5110324;28;19908;-72
2023/07/15 00:56:29;;;;;;;;;;;;;;;;;;5111567;28;19915;-72
2023/07/15 01:00:09;;;;;;;;;;;;;;;;;;5112625;27;20283;-70
2023/07/15 01:02:35;;;;;;;;;;;;;;;;;;5111808;28;19958;-70
2023/07/15 01:05:01;;;;;;;;;;;;;;;;;;5111456;28;19912;-70
2023/07/15 01:07:27;;;;;;;;;;;;;;;;;;5111599;28;19915;-70
2023/07/15 01:09:53;;;;;;;;;;;;;;;;;;5111553;28;19911;-71
2023/07/15 01:13:35;;;;;;;;;;;;;;;;;;5091157;28;19916;-70
2023/07/15 01:17:42;;;;;;;;;;;;;;;;;;5112289;27;19916;-70
2023/07/15 01:20:08;;;;;;;;;;;;;;;;;;5111468;28;19912;-70
2023/07/15 01:22:34;;;;;;;;;;;;;;;;;;5111659;28;19915;-70
2023/07/15 01:25:00;;;;;;;;;;;;;;;;;;5110367;28;19908;-70
2023/07/15 01:27:26;;;;;;;;;;;;;;;;;;5111122;28;19994;-70
2023/07/15 01:29:52;;;;;;;;;;;;;;;;;;5111530;28;19915;-70
2023/07/15 01:34:58;;;;;;;;;;;;;;;;;;5111266;27;20287;-71
2023/07/15 01:37:24;;;;;;;;;;;;;;;;;;5111701;28;19919;-71
2023/07/15 01:40:51;;;;;;;;;;;;;;;;;;5111524;27;19924;-70
2023/07/15 01:43:17;;;;;;;;;;;;;;;;;;5111700;28;19973;-70
2023/07/15 01:45:43;;;;;;;;;;;;;;;;;;5111666;28;19908;-71
2023/07/15 01:48:09;;;;;;;;;;;;;;;;;;5111398;28;19908;-71
2023/07/15 01:50:36;;;;;;;;;;;;;;;;;;5111627;28;19908;-71
2023/07/15 01:53:02;;;;;;;;;;;;;;;;;;5111556;28;19908;-71
2023/07/15 01:57:25;;;;;;;;;;;;;;;;;;5112518;27;20276;-70
2023/07/15 02:01:39;;;;;;;;;;;;;;;;;;5111798;27;19916;-71
2023/07/15 02:04:05;;;;;;;;;;;;;;;;;;5110446;28;20026;-71
2023/07/15 02:09:12;;;;;;;;;;;;;;;;;;5111773;27;19922;-71
2023/07/15 02:16:19;;;;;;;;;;;;;;;;;;5111462;27;19934;-71
2023/07/15 02:26:06;;;;;;;;;;;;;;;;;;5111907;27;19916;-70
2023/07/15 02:30:06;;;;;;;;;;;;;;;;;;5111828;27;19912;-71
2023/07/15 02:32:32;;;;;;;;;;;;;;;;;;5111751;28;19912;-72
2023/07/15 02:34:58;;;;;;;;;;;;;;;;;;5111655;28;20429;-72
2023/07/15 02:37:24;;;;;;;;;;;;;;;;;;5111520;28;20360;-72
2023/07/15 02:39:50;;;;;;;;;;;;;;;;;;5110342;28;20368;-72
2023/07/15 02:42:16;;;;;;;;;;;;;;;;;;5111652;28;20299;-71
2023/07/15 02:44:41;;;;;;;;;;;;;;;;;;5109910;28;20319;-71
2023/07/15 02:48:53;;;;;;;;;;;;;;;;;;5112500;27;19916;-72
2023/07/15 02:59:49;;;;;;;;;;;;;;;;;;5111698;27;19911;-70
2023/07/15 03:04:44;;;;;;;;;;;;;;;;;;5152802;27;19911;-70
2023/07/15 03:07:10;;;;;;;;;;;;;;;;;;5153102;27;20379;-71
2023/07/15 03:09:36;;;;;;;;;;;;;;;;;;5134408;27;19908;-70
2023/07/15 03:15:26;;;;;;;;;;;;;;;;;;5112599;27;19916;-71
2023/07/15 03:19:37;;;;;;;;;;;;;;;;;;5111686;27;19922;-71
2023/07/15 03:25:32;;;;;;;;;;;;;;;;;;5111928;27;20388;-71
2023/07/15 03:29:37;;;;;;;;;;;;;;;;;;5173932;27;19911;-70
2023/07/15 03:32:03;;;;;;;;;;;;;;;;;;5173783;27;19911;-70
2023/07/15 03:36:34;;;;;;;;;;;;;;;;;;5112624;27;20291;-70
2023/07/15 03:45:02;;;;;;;;;;;;;;;;;;5112328;27;19916;-71
2023/07/15 03:49:06;;;;;;;;;;;;;;;;;;5092071;28;19916;-70
2023/07/15 03:52:24;;;;;;;;;;;;;;;;;;5112355;27;20285;-71
2023/07/15 03:59:13;;;;;;;;;;;;;;;;;;5112062;27;19923;-70
2023/07/15 04:01:54;;;;;;;;;;;;;;;;;;5071134;28;19970;-71
2023/07/15 04:05:14;;;;;;;;;;;;;;;;;;5112020;27;19916;-70
2023/07/15 04:07:40;;;;;;;;;;;;;;;;;;5111457;28;20002;-70
2023/07/15 04:10:06;;;;;;;;;;;;;;;;;;5111780;28;19961;-70
2023/07/15 04:12:32;;;;;;;;;;;;;;;;;;5111820;28;19908;-70
2023/07/15 04:14:58;;;;;;;;;;;;;;;;;;5111301;28;19944;-70
2023/07/15 04:17:24;;;;;;;;;;;;;;;;;;5111676;28;19912;-71
2023/07/15 04:19:50;;;;;;;;;;;;;;;;;;5111696;28;19954;-71
2023/07/15 04:26:07;;;;;;;;;;;;;;;;;;5153257;27;19915;-70
2023/07/15 04:28:33;;;;;;;;;;;;;;;;;;5153049;27;20375;-70
2023/07/15 04:30:59;;;;;;;;;;;;;;;;;;5153089;27;19914;-70
2023/07/15 04:35:29;;;;;;;;;;;;;;;;;;5111986;27;19922;-71
2023/07/15 04:37:55;;;;;;;;;;;;;;;;;;5110044;28;20293;-70
2023/07/15 04:40:21;;;;;;;;;;;;;;;;;;5111676;28;19912;-70
2023/07/15 04:43:12;;;;;;;;;;;;;;;;;;5091359;27;19916;-70
2023/07/15 04:48:40;;;;;;;;;;;;;;;;;;5111693;27;19916;-70
2023/07/15 04:51:06;;;;;;;;;;;;;;;;;;5110168;28;20429;-70
2023/07/15 04:54:11;;;;;;;;;;;;;;;;;;5111834;27;19916;-71
2023/07/15 04:56:37;;;;;;;;;;;;;;;;;;5111916;28;19916;-71
2023/07/15 04:59:03;;;;;;;;;;;;;;;;;;5111267;28;19953;-71
2023/07/15 05:01:29;;;;;;;;;;;;;;;;;;5111690;28;19912;-71
2023/07/15 05:05:51;;;;;;;;;;;;;;;;;;5111508;27;19912;-70
2023/07/15 05:08:45;;;;;;;;;;;;;;;;;;5111901;27;19916;-70
2023/07/15 05:11:12;;;;;;;;;;;;;;;;;;5111384;28;20348;-70
2023/07/15 05:13:38;;;;;;;;;;;;;;;;;;5111632;28;19999;-70
2023/07/15 05:16:04;;;;;;;;;;;;;;;;;;5110346;28;19955;-70
2023/07/15 05:18:30;;;;;;;;;;;;;;;;;;5111716;28;20317;-70
2023/07/15 05:20:57;;;;;;;;;;;;;;;;;;5110210;28;19958;-70
2023/07/15 05:23:48;;;;;;;;;;;;;;;;;;5111901;27;19916;-70
2023/07/15 05:29:23;;;;;;;;;;;;;;;;;;5091660;27;19919;-70
2023/07/15 05:31:50;;;;;;;;;;;;;;;;;;5091799;28;19999;-70
2023/07/15 05:34:16;;;;;;;;;;;;;;;;;;5090985;28;20390;-70
2023/07/15 05:38:25;;;;;;;;;;;;;;;;;;5112574;27;19915;-70
2023/07/15 05:42:50;;;;;;;;;;;;;;;;;;5112627;27;20364;-70
2023/07/15 05:45:35;;;;;;;;;;;;;;;;;;5112368;27;19922;-70
2023/07/15 05:48:01;;;;;;;;;;;;;;;;;;5111314;28;19965;-70
2023/07/15 05:50:32;;;;;;;;;;;;;;;;;;5111782;28;20322;-70
2023/07/15 05:52:58;;;;;;;;;;;;;;;;;;5110068;28;19915;-70
2023/07/15 05:55:24;;;;;;;;;;;;;;;;;;5111618;28;19919;-70
2023/07/15 05:57:50;;;;;;;;;;;;;;;;;;5111598;28;19911;-70
2023/07/15 06:01:09;;;;;;;;;;;;;;;;;;5111818;27;20298;-71
2023/07/15 06:04:21;;;;;;;;;;;;;;;;;;5112508;27;19923;-71
2023/07/15 06:06:47;;;;;;;;;;;;;;;;;;5111851;28;19912;-71
2023/07/15 06:09:13;;;;;;;;;;;;;;;;;;5111304;28;19911;-71
2023/07/15 06:11:39;;;;;;;;;;;;;;;;;;5111780;28;19919;-71
2023/07/15 06:14:04;;;;;;;;;;;;;;;;;;5111305;28;19943;-71
2023/07/15 06:17:00;;;;;;;;;;;;;;;;;;5111874;27;19916;-70
2023/07/15 06:19:26;;;;;;;;;;;;;;;;;;5110394;28;20419;-70
2023/07/15 06:22:29;;;;;;;;;;;;;;;;;;5071066;28;19919;-70
2023/07/15 06:26:43;;;;;;;;;;;;;;;;;;5112018;27;19916;-70
2023/07/15 06:29:09;;;;;;;;;;;;;;;;;;5109936;28;20002;-71
2023/07/15 06:31:35;;;;;;;;;;;;;;;;;;5111671;28;19908;-71
2023/07/15 06:36:02;;;;;;;;;;;;;;;;;;5111484;27;19912;-71
2023/07/15 06:40:40;;;;;;;;;;;;;;;;;;5111782;27;19938;-70
2023/07/15 06:43:41;;;;;;;;;;;;;;;;;;5091310;27;19939;-70
2023/07/15 06:46:07;;;;;;;;;;;;;;;;;;5092017;28;20439;-71
2023/07/15 06:48:33;;;;;;;;;;;;;;;;;;5091279;28;19909;-71
2023/07/15 06:50:59;;;;;;;;;;;;;;;;;;5089596;28;20318;-70
2023/07/15 06:53:25;;;;;;;;;;;;;;;;;;5091182;28;19909;-71
2023/07/15 06:55:51;;;;;;;;;;;;;;;;;;5089930;28;19957;-71
2023/07/15 06:58:17;;;;;;;;;;;;;;;;;;5090769;28;19912;-70
2023/07/15 07:01:04;;;;;;;;;;;;;;;;;;5112693;27;19916;-71
2023/07/15 07:03:30;;;;;;;;;;;;;;;;;;5111371;28;20023;-71
2023/07/15 07:05:56;;;;;;;;;;;;;;;;;;5111680;28;19953;-71
2023/07/15 07:08:52;;;;;;;;;;;;;;;;;;5153095;27;20361;-71
2023/07/15 07:11:18;;;;;;;;;;;;;;;;;;5152886;27;19957;-71
2023/07/15 07:13:44;;;;;;;;;;;;;;;;;;5152797;27;19912;-71
2023/07/15 07:16:10;;;;;;;;;;;;;;;;;;5153126;27;19908;-71
2023/07/15 07:18:36;;;;;;;;;;;;;;;;;;5152364;27;19950;-70
2023/07/15 07:21:02;;;;;;;;;;;;;;;;;;5152736;27;20274;-70
2023/07/15 07:23:29;;;;;;;;;;;;;;;;;;5152611;27;20411;-70
2023/07/15 07:25:55;;;;;;;;;;;;;;;;;;5152178;27;19961;-71
2023/07/15 07:28:21;;;;;;;;;;;;;;;;;;5152792;27;19958;-71
2023/07/15 07:30:47;;;;;;;;;;;;;;;;;;5152602;27;20401;-70
2023/07/15 07:33:13;;;;;;;;;;;;;;;;;;5152101;27;20006;-71
2023/07/15 07:35:39;;;;;;;;;;;;;;;;;;5152487;27;19907;-71
2023/07/15 07:38:43;;;;;;;;;;;;;;;;;;5091327;28;19935;-70
2023/07/15 07:41:09;;;;;;;;;;;;;;;;;;5091591;28;19966;-71
2023/07/15 07:43:35;;;;;;;;;;;;;;;;;;5091269;28;19908;-71
2023/07/15 07:46:01;;;;;;;;;;;;;;;;;;5090860;28;19909;-71
2023/07/15 07:48:56;;;;;;;;;;;;;;;;;;5153587;27;20014;-71
2023/07/15 07:51:22;;;;;;;;;;;;;;;;;;5153014;27;20383;-70
2023/07/15 07:53:48;;;;;;;;;;;;;;;;;;5152373;27;20049;-71
2023/07/15 07:56:14;;;;;;;;;;;;;;;;;;5152868;27;19907;-70
2023/07/15 07:58:40;;;;;;;;;;;;;;;;;;5134153;27;19907;-71
2023/07/15 08:01:06;;;;;;;;;;;;;;;;;;5133780;27;19911;-71
2023/07/15 08:03:32;;;;;;;;;;;;;;;;;;5152647;27;20010;-71
2023/07/15 08:05:59;;;;;;;;;;;;;;;;;;5134089;27;19907;-71
2023/07/15 08:08:25;;;;;;;;;;;;;;;;;;5133605;27;20330;-71
2023/07/15 08:10:51;;;;;;;;;;;;;;;;;;5152519;27;19907;-71
2023/07/15 08:13:17;;;;;;;;;;;;;;;;;;5153098;27;20382;-71
2023/07/15 08:15:43;;;;;;;;;;;;;;;;;;5152042;27;19917;-71
2023/07/15 08:18:09;;;;;;;;;;;;;;;;;;5152380;27;19907;-71
2023/07/15 08:20:37;;;;;;;;;;;;;;;;;;5152499;27;19976;-71
2023/07/15 08:23:03;;;;;;;;;;;;;;;;;;5151921;27;19907;-71
2023/07/15 08:25:29;;;;;;;;;;;;;;;;;;5152231;27;20339;-71
2023/07/15 08:27:55;;;;;;;;;;;;;;;;;;5151777;27;20085;-71
2023/07/15 08:30:21;;;;;;;;;;;;;;;;;;5152156;27;19907;-71
2023/07/15 08:32:47;;;;;;;;;;;;;;;;;;5152141;27;20366;-71
2023/07/15 08:35:13;;;;;;;;;;;;;;;;;;5151673;27;19915;-71
2023/07/15 08:37:39;;;;;;;;;;;;;;;;;;5152037;27;19976;-71
2023/07/15 08:40:06;;;;;;;;;;;;;;;;;;5151972;27;19907;-71
2023/07/15 08:42:32;;;;;;;;;;;;;;;;;;5151438;27;19914;-71
2023/07/15 08:44:58;;;;;;;;;;;;;;;;;;5151744;27;20282;-71
2023/07/15 08:47:23;;;;;;;;;;;;;;;;;;5151595;27;19919;-71
2023/07/15 08:49:49;;;;;;;;;;;;;;;;;;5151323;27;20279;-71
2023/07/15 08:52:15;;;;;;;;;;;;;;;;;;5133188;27;20291;-71
2023/07/15 08:54:41;;;;;;;;;;;;;;;;;;5151704;27;20363;-71
2023/07/15 08:57:07;;;;;;;;;;;;;;;;;;5151424;27;20248;-71
2023/07/15 08:59:33;;;;;;;;;;;;;;;;;;5141761;27;19908;-71
2023/07/15 09:01:59;;;;;;;;;;;;;;;;;;5137664;27;19954;-71
2023/07/15 09:04:25;;;;;;;;;;;;;;;;;;5137276;27;19999;-71
2023/07/15 09:06:52;;;;;;;;;;;;;;;;;;5137575;27;20005;-71
2023/07/15 09:09:18;;;;;;;;;;;;;;;;;;5137542;27;20002;-71
2023/07/15 09:11:43;;;;;;;;;;;;;;;;;;5137137;27;20352;-71
2023/07/15 09:14:09;;;;;;;;;;;;;;;;;;5119153;27;19914;-71
2023/07/15 09:16:35;;;;;;;;;;;;;;;;;;5119001;27;19946;-71
2023/07/15 09:19:01;;;;;;;;;;;;;;;;;;5137170;27;19922;-71
2023/07/15 09:21:27;;;;;;;;;;;;;;;;;;5137325;27;19915;-71
2023/07/15 09:23:53;;;;;;;;;;;;;;;;;;5137335;27;19914;-71
2023/07/15 09:26:19;;;;;;;;;;;;;;;;;;5136825;27;19987;-71
2023/07/15 09:28:45;;;;;;;;;;;;;;;;;;5137160;27;19926;-72
2023/07/15 09:31:11;;;;;;;;;;;;;;;;;;5136872;27;20377;-72
2023/07/15 09:33:40;;;;;;;;;;;;;;;;;;5137253;27;19907;-72
2023/07/15 09:36:06;;;;;;;;;;;;;;;;;;5137376;27;19912;-72
2023/07/15 09:38:32;;;;;;;;;;;;;;;;;;5136744;27;19959;-72
2023/07/15 09:40:58;;;;;;;;;;;;;;;;;;5136986;27;19911;-71
2023/07/15 09:43:23;;;;;;;;;;;;;;;;;;5118495;27;19954;-71
2023/07/15 09:45:49;;;;;;;;;;;;;;;;;;5136451;27;19908;-72
2023/07/15 09:48:19;;;;;;;;;;;;;;;;;;5136766;27;19929;-72
2023/07/15 09:50:45;;;;;;;;;;;;;;;;;;5136815;27;19952;-72
2023/07/15 09:53:11;;;;;;;;;;;;;;;;;;5136308;27;19990;-72
2023/07/15 09:55:37;;;;;;;;;;;;;;;;;;5136760;27;19947;-71
2023/07/15 09:58:03;;;;;;;;;;;;;;;;;;5136643;27;19957;-71
2023/07/15 10:00:29;;;;;;;;;;;;;;;;;;5136234;27;19908;-71
2023/07/15 10:02:55;;;;;;;;;;;;;;;;;;5136900;27;20310;-71
2023/07/15 10:05:22;;;;;;;;;;;;;;;;;;5136388;27;19973;-71
2023/07/15 10:07:48;;;;;;;;;;;;;;;;;;5136038;27;20013;-72
2023/07/15 10:10:13;;;;;;;;;;;;;;;;;;5136086;27;19939;-71
2023/07/15 10:12:39;;;;;;;;;;;;;;;;;;5136217;27;19915;-71
2023/07/15 10:15:07;;;;;;;;;;;;;;;;;;5117359;27;19918;-71
2023/07/15 10:17:33;;;;;;;;;;;;;;;;;;5136223;27;19961;-71
2023/07/15 10:19:59;;;;;;;;;;;;;;;;;;5136142;27;19915;-71
2023/07/15 10:22:25;;;;;;;;;;;;;;;;;;5135873;27;19915;-71
2023/07/15 10:24:51;;;;;;;;;;;;;;;;;;5136089;27;19907;-72
2023/07/15 10:27:17;;;;;;;;;;;;;;;;;;5135595;27;19947;-72
2023/07/15 10:29:43;;;;;;;;;;;;;;;;;;5135987;27;20243;-72
2023/07/15 10:32:09;;;;;;;;;;;;;;;;;;5136228;27;20305;-72
2023/07/15 10:34:35;;;;;;;;;;;;;;;;;;5135613;27;19907;-71
2023/07/15 10:37:01;;;;;;;;;;;;;;;;;;5135789;27;19907;-72
2023/07/15 10:39:27;;;;;;;;;;;;;;;;;;5135750;27;19907;-71
2023/07/15 10:41:53;;;;;;;;;;;;;;;;;;5135374;27;19950;-71
2023/07/15 10:44:19;;;;;;;;;;;;;;;;;;5135696;27;19915;-71
2023/07/15 10:46:45;;;;;;;;;;;;;;;;;;5116968;27;19907;-74
2023/07/15 10:49:11;;;;;;;;;;;;;;;;;;5116899;27;20359;-71
2023/07/15 10:51:37;;;;;;;;;;;;;;;;;;5135522;27;19911;-71
2023/07/15 10:54:03;;;;;;;;;;;;;;;;;;5117100;27;19907;-71
2023/07/15 10:56:29;;;;;;;;;;;;;;;;;;5135061;27;20006;-71
2023/07/15 10:58:54;;;;;;;;;;;;;;;;;;5135483;27;19914;-71
2023/07/15 11:01:20;;;;;;;;;;;;;;;;;;5135327;27;19908;-72
2023/07/15 11:03:46;;;;;;;;;;;;;;;;;;5134959;27;19912;-72
2023/07/15 11:06:12;;;;;;;;;;;;;;;;;;5135309;27;19941;-72
2023/07/15 11:08:38;;;;;;;;;;;;;;;;;;5135195;27;19960;-71
2023/07/15 11:11:04;;;;;;;;;;;;;;;;;;5134887;27;19931;-71
2023/07/15 11:13:30;;;;;;;;;;;;;;;;;;5135810;27;20351;-72
2023/07/15 11:15:56;;;;;;;;;;;;;;;;;;5116772;27;19907;-71
2023/07/15 11:18:22;;;;;;;;;;;;;;;;;;5134740;27;19908;-71
2023/07/15 11:20:48;;;;;;;;;;;;;;;;;;5135049;27;20044;-71
2023/07/15 11:23:14;;;;;;;;;;;;;;;;;;5135155;27;19908;-73
2023/07/15 11:25:40;;;;;;;;;;;;;;;;;;5116444;28;19990;-72
2023/07/15 11:28:06;;;;;;;;;;;;;;;;;;5134916;27;19939;-72
2023/07/15 11:30:32;;;;;;;;;;;;;;;;;;5116620;27;19950;-72
2023/07/15 11:32:58;;;;;;;;;;;;;;;;;;5134648;27;19908;-71
2023/07/15 11:35:24;;;;;;;;;;;;;;;;;;5134865;27;19911;-71
2023/07/15 11:37:50;;;;;;;;;;;;;;;;;;5134433;27;19908;-72
2023/07/15 11:40:16;;;;;;;;;;;;;;;;;;5116412;27;20006;-75
2023/07/15 11:42:42;;;;;;;;;;;;;;;;;;5116428;28;19921;-71
2023/07/15 11:45:08;;;;;;;;;;;;;;;;;;5134386;27;19915;-72
2023/07/15 11:47:34;;;;;;;;;;;;;;;;;;5116086;28;19947;-71
2023/07/15 11:50:00;;;;;;;;;;;;;;;;;;5134788;28;19943;-73
2023/07/15 11:52:26;;;;;;;;;;;;;;;;;;5134328;28;19934;-71
2023/07/15 11:54:51;;;;;;;;;;;;;;;;;;5134827;28;19908;-73
2023/07/15 11:57:17;;;;;;;;;;;;;;;;;;5134694;28;19951;-71
2023/07/15 11:59:43;;;;;;;;;;;;;;;;;;5134280;28;19914;-72
2023/07/15 12:02:09;;;;;;;;;;;;;;;;;;5134699;28;19965;-72
2023/07/15 12:04:35;;;;;;;;;;;;;;;;;;5134708;28;20002;-71
2023/07/15 12:07:01;;;;;;;;;;;;;;;;;;5115794;28;19916;-72
2023/07/15 12:09:27;;;;;;;;;;;;;;;;;;5134555;28;19908;-72
2023/07/15 12:11:53;;;;;;;;;;;;;;;;;;5134521;28;20249;-71
2023/07/15 12:14:19;;;;;;;;;;;;;;;;;;5134266;28;20371;-71
2023/07/15 12:16:47;;;;;;;;;;;;;;;;;;5134525;28;19958;-71
2023/07/15 12:19:13;;;;;;;;;;;;;;;;;;5134430;28;19914;-71
2023/07/15 12:21:39;;;;;;;;;;;;;;;;;;5134055;28;20364;-71
2023/07/15 12:24:05;;;;;;;;;;;;;;;;;;5116057;28;19907;-71
2023/07/15 12:26:31;;;;;;;;;;;;;;;;;;5134433;28;19911;-71
2023/07/15 12:28:57;;;;;;;;;;;;;;;;;;5133973;28;19916;-71
2023/07/15 12:31:23;;;;;;;;;;;;;;;;;;5115980;28;20290;-71
2023/07/15 12:33:49;;;;;;;;;;;;;;;;;;5135208;27;19915;-71
2023/07/15 12:36:15;;;;;;;;;;;;;;;;;;5119475;27;19907;-72
2023/07/15 12:38:40;;;;;;;;;;;;;;;;;;5138359;27;20005;-72
2023/07/15 12:41:06;;;;;;;;;;;;;;;;;;5138079;27;19960;-71
2023/07/15 12:43:32;;;;;;;;;;;;;;;;;;5138139;27;20279;-71
2023/07/15 12:45:58;;;;;;;;;;;;;;;;;;5138153;27;19908;-71
2023/07/15 12:48:24;;;;;;;;;;;;;;;;;;5137374;27;20371;-72
2023/07/15 12:50:50;;;;;;;;;;;;;;;;;;5137962;27;19945;-71
2023/07/15 12:53:16;;;;;;;;;;;;;;;;;;5119570;27;20417;-71
2023/07/15 12:55:42;;;;;;;;;;;;;;;;;;5137502;27;19911;-71
2023/07/15 12:58:08;;;;;;;;;;;;;;;;;;5137876;27;19908;-71
2023/07/15 13:00:34;;;;;;;;;;;;;;;;;;5137751;27;20357;-72
2023/07/15 13:03:00;;;;;;;;;;;;;;;;;;5137278;27;19908;-71
2023/07/15 13:05:26;;;;;;;;;;;;;;;;;;5137705;27;19912;-71
2023/07/15 13:07:52;;;;;;;;;;;;;;;;;;5119230;27;19922;-72
2023/07/15 13:10:18;;;;;;;;;;;;;;;;;;5137178;27;19911;-72
2023/07/15 13:12:44;;;;;;;;;;;;;;;;;;5137630;27;20002;-72
2023/07/15 13:15:10;;;;;;;;;;;;;;;;;;5137695;27;19907;-72
2023/07/15 13:17:39;;;;;;;;;;;;;;;;;;5137163;27;19911;-72
2023/07/15 13:20:06;;;;;;;;;;;;;;;;;;5137524;27;19911;-72
2023/07/15 13:22:32;;;;;;;;;;;;;;;;;;5137339;27;20029;-72
2023/07/15 13:24:58;;;;;;;;;;;;;;;;;;5137099;27;19951;-72
2023/07/15 13:27:24;;;;;;;;;;;;;;;;;;5118851;27;19915;-72
2023/07/15 13:29:50;;;;;;;;;;;;;;;;;;5137262;27;19908;-72
2023/07/15 13:32:16;;;;;;;;;;;;;;;;;;5136926;27;19918;-72
2023/07/15 13:34:41;;;;;;;;;;;;;;;;;;5137200;27;19911;-72
2023/07/15 13:37:07;;;;;;;;;;;;;;;;;;5137265;27;19907;-73
2023/07/15 13:39:34;;;;;;;;;;;;;;;;;;5118286;27;19945;-72
2023/07/15 13:42:00;;;;;;;;;;;;;;;;;;5137022;27;19915;-72
2023/07/15 13:44:25;;;;;;;;;;;;;;;;;;5136452;27;19911;-72
2023/07/15 13:46:51;;;;;;;;;;;;;;;;;;5136952;27;19970;-71
2023/07/15 13:49:17;;;;;;;;;;;;;;;;;;5136898;27;19919;-71
2023/07/15 13:51:43;;;;;;;;;;;;;;;;;;5136417;27;19907;-72
2023/07/15 13:54:09;;;;;;;;;;;;;;;;;;5136839;27;19908;-71
2023/07/15 13:56:35;;;;;;;;;;;;;;;;;;5136757;27;19911;-72
2023/07/15 13:59:01;;;;;;;;;;;;;;;;;;5136179;27;19994;-72
2023/07/15 14:01:27;;;;;;;;;;;;;;;;;;5136622;27;19907;-72
2023/07/15 14:03:53;;;;;;;;;;;;;;;;;;5136602;27;19907;-72
2023/07/15 14:06:20;;;;;;;;;;;;;;;;;;5117729;27;19957;-72
2023/07/15 14:08:46;;;;;;;;;;;;;;;;;;5136441;27;19919;-72
2023/07/15 14:11:12;;;;;;;;;;;;;;;;;;5136491;27;19908;-72
2023/07/15 14:13:38;;;;;;;;;;;;;;;;;;5136018;27;19908;-72
2023/07/15 14:16:04;;;;;;;;;;;;;;;;;;5136308;27;19907;-72
2023/07/15 14:18:30;;;;;;;;;;;;;;;;;;5136361;27;19948;-72
2023/07/15 14:20:56;;;;;;;;;;;;;;;;;;5117455;27;19918;-72
2023/07/15 14:23:21;;;;;;;;;;;;;;;;;;5117837;27;19907;-72
2023/07/15 14:25:47;;;;;;;;;;;;;;;;;;5136176;27;19908;-72
2023/07/15 14:28:13;;;;;;;;;;;;;;;;;;5117135;27;19916;-72
2023/07/15 14:30:39;;;;;;;;;;;;;;;;;;5135941;27;20002;-72
2023/07/15 14:33:05;;;;;;;;;;;;;;;;;;5136050;27;20270;-72
2023/07/15 14:35:31;;;;;;;;;;;;;;;;;;5135681;27;20287;-72
2023/07/15 14:37:57;;;;;;;;;;;;;;;;;;5135936;27;20311;-72
2023/07/15 14:40:23;;;;;;;;;;;;;;;;;;5136018;27;20357;-73
2023/07/15 14:42:49;;;;;;;;;;;;;;;;;;5135645;27;20329;-73
2023/07/15 14:45:15;;;;;;;;;;;;;;;;;;5135988;27;20284;-73
2023/07/15 14:47:41;;;;;;;;;;;;;;;;;;5135074;27;19962;-73
2023/07/15 14:50:07;;;;;;;;;;;;;;;;;;5135785;27;19915;-72
2023/07/15 14:52:33;;;;;;;;;;;;;;;;;;5135597;27;19976;-72
2023/07/15 14:54:59;;;;;;;;;;;;;;;;;;5135278;27;19930;-72
2023/07/15 14:57:24;;;;;;;;;;;;;;;;;;5135178;27;19908;-72
2023/07/15 14:59:50;;;;;;;;;;;;;;;;;;5117089;27;19907;-72
2023/07/15 15:02:16;;;;;;;;;;;;;;;;;;5135203;27;19908;-73
2023/07/15 15:04:42;;;;;;;;;;;;;;;;;;5135513;27;19912;-73
2023/07/15 15:07:08;;;;;;;;;;;;;;;;;;5135462;27;19936;-73
2023/07/15 15:09:34;;;;;;;;;;;;;;;;;;5135072;27;20003;-73
2023/07/15 15:12:00;;;;;;;;;;;;;;;;;;5135569;27;19908;-73
2023/07/15 15:14:26;;;;;;;;;;;;;;;;;;5116844;27;19911;-72
2023/07/15 15:16:52;;;;;;;;;;;;;;;;;;5134807;27;19911;-71
2023/07/15 15:19:18;;;;;;;;;;;;;;;;;;5135246;27;20005;-71
2023/07/15 15:21:44;;;;;;;;;;;;;;;;;;5116704;27;19908;-71
2023/07/15 15:24:10;;;;;;;;;;;;;;;;;;5134790;27;19908;-72
2023/07/15 15:26:36;;;;;;;;;;;;;;;;;;5135278;27;19911;-71
2023/07/15 15:29:02;;;;;;;;;;;;;;;;;;5134923;27;20324;-71
2023/07/15 15:31:28;;;;;;;;;;;;;;;;;;5116282;27;19953;-71
2023/07/15 15:33:54;;;;;;;;;;;;;;;;;;5134977;27;19911;-71
2023/07/15 15:36:20;;;;;;;;;;;;;;;;;;5134945;27;19908;-71
2023/07/15 15:38:46;;;;;;;;;;;;;;;;;;5134625;27;19911;-71
2023/07/15 15:41:12;;;;;;;;;;;;;;;;;;5134910;27;19908;-71
2023/07/15 15:43:37;;;;;;;;;;;;;;;;;;5134785;27;20249;-71
2023/07/15 15:46:03;;;;;;;;;;;;;;;;;;5134467;27;19908;-71
2023/07/15 15:48:29;;;;;;;;;;;;;;;;;;5134503;28;19920;-71
2023/07/15 15:50:55;;;;;;;;;;;;;;;;;;5134391;28;20013;-71
2023/07/15 15:53:21;;;;;;;;;;;;;;;;;;5134793;28;19915;-71
2023/07/15 15:55:47;;;;;;;;;;;;;;;;;;5134902;28;19907;-72
2023/07/15 15:58:13;;;;;;;;;;;;;;;;;;5134355;28;19950;-71
2023/07/15 16:00:41;;;;;;;;;;;;;;;;;;5135015;28;19907;-71
2023/07/15 16:03:07;;;;;;;;;;;;;;;;;;5135113;28;19919;-71
2023/07/15 16:05:33;;;;;;;;;;;;;;;;;;5134341;28;19907;-71
2023/07/15 16:07:58;;;;;;;;;;;;;;;;;;5134657;27;19963;-71
2023/07/15 16:10:24;;;;;;;;;;;;;;;;;;5138127;27;19908;-71
2023/07/15 16:12:50;;;;;;;;;;;;;;;;;;5138549;27;19954;-71
2023/07/15 16:15:16;;;;;;;;;;;;;;;;;;5138757;27;20359;-72
2023/07/15 16:17:42;;;;;;;;;;;;;;;;;;5138727;27;20354;-72
2023/07/15 16:20:08;;;;;;;;;;;;;;;;;;5138223;27;19907;-71
2023/07/15 16:22:34;;;;;;;;;;;;;;;;;;5138853;27;20405;-72
2023/07/15 16:25:00;;;;;;;;;;;;;;;;;;5120023;27;20359;-71
2023/07/15 16:27:26;;;;;;;;;;;;;;;;;;5138024;27;20418;-72
2023/07/15 16:29:52;;;;;;;;;;;;;;;;;;5138967;27;20367;-72
2023/07/15 16:32:18;;;;;;;;;;;;;;;;;;5120008;27;19908;-70
2023/07/15 16:34:44;;;;;;;;;;;;;;;;;;5119560;27;19911;-73
2023/07/15 16:37:10;;;;;;;;;;;;;;;;;;5138441;27;19943;-71
2023/07/15 16:39:36;;;;;;;;;;;;;;;;;;5138614;27;20337;-71
2023/07/15 16:42:02;;;;;;;;;;;;;;;;;;5137869;27;19907;-72
2023/07/15 16:44:28;;;;;;;;;;;;;;;;;;5138207;27;19908;-72
2023/07/15 16:46:54;;;;;;;;;;;;;;;;;;5137884;27;19919;-72
2023/07/15 16:49:20;;;;;;;;;;;;;;;;;;5137697;27;20021;-72
2023/07/15 16:51:45;;;;;;;;;;;;;;;;;;5138096;27;19912;-72
2023/07/15 16:54:11;;;;;;;;;;;;;;;;;;5137603;27;19907;-71
2023/07/15 16:56:37;;;;;;;;;;;;;;;;;;5137964;27;19951;-72
2023/07/15 16:59:03;;;;;;;;;;;;;;;;;;5137887;27;20414;-71
2023/07/15 17:01:29;;;;;;;;;;;;;;;;;;5137464;27;19907;-72
2023/07/15 17:03:55;;;;;;;;;;;;;;;;;;5137831;27;20295;-72
2023/07/15 17:06:21;;;;;;;;;;;;;;;;;;5119432;27;20377;-72
2023/07/15 17:08:47;;;;;;;;;;;;;;;;;;5137355;27;20329;-73
2023/07/15 17:11:13;;;;;;;;;;;;;;;;;;5137737;27;19915;-72
2023/07/15 17:13:39;;;;;;;;;;;;;;;;;;5137659;27;19994;-72
2023/07/15 17:16:05;;;;;;;;;;;;;;;;;;5118614;27;19911;-72
2023/07/15 17:18:31;;;;;;;;;;;;;;;;;;5118965;27;19960;-71
2023/07/15 17:20:57;;;;;;;;;;;;;;;;;;5136933;27;19915;-72
2023/07/15 17:23:23;;;;;;;;;;;;;;;;;;5136942;27;19933;-71
2023/07/15 17:25:49;;;;;;;;;;;;;;;;;;5137395;27;20398;-74
2023/07/15 17:28:15;;;;;;;;;;;;;;;;;;5137391;27;19915;-74
2023/07/15 17:30:41;;;;;;;;;;;;;;;;;;5118542;27;20384;-72
2023/07/15 17:33:07;;;;;;;;;;;;;;;;;;5137315;27;19913;-72
2023/07/15 17:35:33;;;;;;;;;;;;;;;;;;5137454;27;19943;-72
2023/07/15 17:37:59;;;;;;;;;;;;;;;;;;5136670;27;19907;-72
2023/07/15 17:40:25;;;;;;;;;;;;;;;;;;5118631;27;19915;-72
2023/07/15 17:42:51;;;;;;;;;;;;;;;;;;5136994;27;19907;-72
2023/07/15 17:45:17;;;;;;;;;;;;;;;;;;5136583;27;19907;-72
2023/07/15 17:47:42;;;;;;;;;;;;;;;;;;5118235;27;20369;-72
2023/07/15 17:50:08;;;;;;;;;;;;;;;;;;5136811;27;19911;-72
2023/07/15 17:52:34;;;;;;;;;;;;;;;;;;5136317;27;19908;-72
2023/07/15 17:55:00;;;;;;;;;;;;;;;;;;5118364;27;19912;-72
2023/07/15 17:57:26;;;;;;;;;;;;;;;;;;5136283;27;19935;-72
2023/07/15 17:59:52;;;;;;;;;;;;;;;;;;5136759;27;20005;-72
2023/07/15 18:02:18;;;;;;;;;;;;;;;;;;5136706;27;19908;-72
2023/07/15 18:04:44;;;;;;;;;;;;;;;;;;5136219;27;19918;-72
2023/07/15 18:07:10;;;;;;;;;;;;;;;;;;5136434;27;19916;-72
2023/07/15 18:09:36;;;;;;;;;;;;;;;;;;5136976;27;19919;-73
2023/07/15 18:12:02;;;;;;;;;;;;;;;;;;5136087;27;19908;-71
2023/07/15 18:14:28;;;;;;;;;;;;;;;;;;5136331;27;19939;-72
2023/07/15 18:16:54;;;;;;;;;;;;;;;;;;5117908;27;19914;-72
2023/07/15 18:19:20;;;;;;;;;;;;;;;;;;5135885;27;19914;-72
2023/07/15 18:21:46;;;;;;;;;;;;;;;;;;5136283;27;20410;-70
2023/07/15 18:24:12;;;;;;;;;;;;;;;;;;5117870;27;19966;-71
2023/07/15 18:26:38;;;;;;;;;;;;;;;;;;5135756;27;19907;-72